Time;durP1;ratioP1;P1;durP2;ratioP2;P2;SDS_P1;SDS_P2;PMS_P1;PMS_P2;Temp;Humidity;BMP_temperature;BMP_pressure;BME280_temperature;BME280_humidity;BME280_pressure;Samples;Min_cycle;Max_cycle;Signal;HPM_P1;HPM_P2
2023/03/08 00:00:12;;;;;;;0.68;0.60;;;;;;;2.98;82.29;98981.41;4932032;29;20063;-55
2023/03/08 00:02:38;;;;;;;0.30;0.30;;;;;;;2.94;82.22;98984.00;4929397;29;20039;-49
2023/03/08 00:05:05;;;;;;;0.30;0.30;;;;;;;3.05;81.86;98992.19;4914701;29;20034;-49
2023/03/08 00:07:31;;;;;;;0.20;0.20;;;;;;;3.11;81.42;98993.47;4932691;29;20443;-51
2023/03/08 00:09:56;;;;;;;0.50;0.50;;;;;;;3.09;82.04;98991.16;4932076;29;20127;-48
2023/03/08 00:12:22;;;;;;;0.20;0.20;;;;;;;3.04;82.08;98995.97;4929316;29;20059;-47
2023/03/08 00:14:48;;;;;;;0.20;0.20;;;;;;;3.11;82.05;99002.22;4929086;29;20131;-50
2023/03/08 00:17:15;;;;;;;0.30;0.30;;;;;;;3.18;81.64;99015.66;4931940;29;20031;-46
2023/03/08 00:19:41;;;;;;;0.20;0.20;;;;;;;3.19;82.06;99003.94;4924025;29;20056;-52
2023/03/08 00:22:06;;;;;;;0.20;0.20;;;;;;;3.06;82.84;99004.38;4931119;29;20040;-46
2023/03/08 00:24:32;;;;;;;0.30;0.30;;;;;;;3.20;82.49;99008.13;4932213;29;20040;-51
2023/03/08 00:26:57;;;;;;;0.10;0.10;;;;;;;3.26;82.31;99013.94;4928788;29;20450;-53
2023/03/08 00:29:23;;;;;;;0.20;0.20;;;;;;;3.24;82.44;99008.97;4930727;29;20498;-48
2023/03/08 00:31:49;;;;;;;0.40;0.40;;;;;;;3.26;82.43;98998.75;4928190;29;20047;-48
2023/03/08 00:34:15;;;;;;;0.77;0.77;;;;;;;3.24;82.29;99006.31;4930390;29;20039;-48
2023/03/08 00:36:40;;;;;;;0.52;0.52;;;;;;;3.28;82.11;99009.03;4934568;29;20439;-48
2023/03/08 00:39:07;;;;;;;0.20;0.20;;;;;;;3.28;82.28;98998.41;4930296;29;20059;-49
2023/03/08 00:41:33;;;;;;;0.20;0.20;;;;;;;3.28;82.48;99012.47;4911329;29;20115;-49
2023/03/08 00:43:58;;;;;;;0.40;0.40;;;;;;;3.14;82.52;98998.84;4929899;29;20525;-47
2023/03/08 00:46:25;;;;;;;0.20;0.20;;;;;;;3.14;83.09;99008.72;4914949;29;20118;-51
2023/03/08 00:48:51;;;;;;;0.30;0.30;;;;;;;3.11;82.99;99002.22;4928897;29;20095;-49
2023/03/08 00:51:20;;;;;;;0.20;0.20;;;;;;;3.09;83.05;99014.31;4917450;29;20798;-52
2023/03/08 00:53:48;;;;;;;0.20;0.20;;;;;;;3.11;83.11;99012.06;4929942;29;20043;-50
2023/03/08 00:56:14;;;;;;;0.40;0.40;;;;;;;3.03;83.33;99010.38;4925655;29;20402;-50
2023/03/08 00:58:41;;;;;;;0.20;0.20;;;;;;;3.05;82.96;99008.91;4926173;29;20050;-50
2023/03/08 01:01:08;;;;;;;0.28;0.28;;;;;;;2.92;83.95;99017.34;4928883;29;20035;-53
2023/03/08 01:03:34;;;;;;;0.30;0.30;;;;;;;2.76;84.46;99022.66;4931055;29;20647;-48
2023/03/08 01:06:05;;;;;;;0.30;0.30;;;;;;;2.86;84.64;99022.13;4927118;29;20494;-53
2023/03/08 01:08:32;;;;;;;0.20;0.20;;;;;;;3.01;84.27;99031.22;4930897;29;20043;-52
2023/03/08 01:10:58;;;;;;;0.28;0.25;;;;;;;2.81;84.53;99029.59;4934049;29;20031;-49
2023/03/08 01:13:27;;;;;;;0.30;0.30;;;;;;;2.87;84.83;99023.66;4912649;29;20043;-50
2023/03/08 01:15:52;;;;;;;0.20;0.20;;;;;;;2.96;84.28;99024.25;4933838;29;20028;-51
2023/03/08 01:18:18;;;;;;;0.20;0.20;;;;;;;2.99;84.25;99014.84;4934768;29;20050;-50
2023/03/08 01:20:43;;;;;;;0.20;0.20;;;;;;;2.91;84.58;99021.09;4931181;29;20047;-49
2023/03/08 01:23:09;;;;;;;0.57;0.57;;;;;;;2.89;84.70;99026.75;4928321;29;20028;-47
2023/03/08 01:25:36;;;;;;;0.30;0.30;;;;;;;2.97;84.42;99020.50;4933313;29;20483;-53
2023/03/08 01:28:01;;;;;;;0.20;0.20;;;;;;;3.00;84.10;99016.38;4933140;29;20031;-51
2023/03/08 01:30:27;;;;;;;0.38;0.38;;;;;;;2.91;84.69;99013.13;4931157;29;20046;-52
2023/03/08 01:32:52;;;;;;;0.50;0.50;;;;;;;2.81;85.35;99013.66;4915875;29;20042;-51
2023/03/08 01:35:18;;;;;;;0.30;0.30;;;;;;;2.70;85.78;99002.75;4933927;29;20031;-53
2023/03/08 01:37:52;;;;;;;0.47;0.40;;;;;;;2.68;85.55;98997.03;4933309;29;20115;-50
2023/03/08 01:40:18;;;;;;;0.20;0.20;;;;;;;2.69;85.98;98998.59;4926996;29;20063;-53
2023/03/08 01:42:44;;;;;;;0.25;0.25;;;;;;;2.69;85.91;99009.22;4935084;29;20067;-51
2023/03/08 01:45:47;;;;;;;0.35;0.35;;;;;;;2.74;85.53;99007.06;4927610;29;20064;-51
2023/03/08 01:48:14;;;;;;;0.40;0.40;;;;;;;2.75;85.63;98997.97;4930397;29;20036;-51
2023/03/08 01:50:57;;;;;;;0.40;0.40;;;;;;;2.73;85.57;99002.06;4941153;29;20038;-53
2023/03/08 01:53:24;;;;;;;0.30;0.30;;;;;;;2.73;85.74;98997.53;4934257;29;20078;-52
2023/03/08 01:55:49;;;;;;;0.20;0.20;;;;;;;2.71;85.54;99004.28;4911753;29;20144;-53
2023/03/08 01:58:14;;;;;;;0.43;0.43;;;;;;;2.58;85.73;99000.19;4933580;29;20130;-50
2023/03/08 02:00:40;;;;;;;0.40;0.40;;;;;;;2.50;86.47;98998.47;4929426;29;20386;-48
2023/03/08 02:03:09;;;;;;;0.47;0.47;;;;;;;2.41;86.83;98997.88;4934235;29;20078;-48
2023/03/08 02:05:40;;;;;;;0.20;0.20;;;;;;;2.37;87.01;99000.44;4934419;29;20114;-50
2023/03/08 02:08:13;;;;;;;0.65;0.65;;;;;;;2.40;86.96;98999.00;4933622;29;20464;-49
2023/03/08 02:10:40;;;;;;;0.35;0.35;;;;;;;2.40;86.49;98997.09;4930678;29;20042;-48
2023/03/08 02:13:06;;;;;;;0.40;0.40;;;;;;;2.45;86.32;98996.06;4916853;29;20115;-50
2023/03/08 02:15:32;;;;;;;0.43;0.43;;;;;;;2.44;86.66;98989.22;4932868;29;20071;-49
2023/03/08 02:17:58;;;;;;;0.30;0.30;;;;;;;2.33;86.63;98991.59;4943468;29;20077;-49
2023/03/08 02:20:28;;;;;;;0.38;0.38;;;;;;;2.22;87.57;98989.78;4922059;29;20040;-48
2023/03/08 02:22:53;;;;;;;0.50;0.50;;;;;;;2.08;87.80;98994.72;4930763;29;20083;-52
2023/03/08 02:25:20;;;;;;;0.30;0.30;;;;;;;1.97;88.14;98994.47;4932653;29;20036;-53
2023/03/08 02:27:47;;;;;;;0.30;0.30;;;;;;;2.06;88.23;98995.06;4925705;29;20424;-52
2023/03/08 02:30:16;;;;;;;0.50;0.50;;;;;;;2.04;87.93;98991.19;4926760;29;20039;-51
2023/03/08 02:32:41;;;;;;;0.30;0.30;;;;;;;2.04;88.35;98991.97;4934099;29;20035;-49
2023/03/08 02:35:07;;;;;;;0.20;0.20;;;;;;;2.06;87.86;98989.75;4930323;29;20043;-50
2023/03/08 02:37:33;;;;;;;0.20;0.20;;;;;;;2.11;87.45;98984.19;4913010;29;20051;-52
2023/03/08 02:39:58;;;;;;;0.20;0.20;;;;;;;2.10;87.47;98985.31;4925554;29;20048;-48
2023/03/08 02:42:24;;;;;;;0.38;0.38;;;;;;;2.06;88.08;98983.66;4933672;29;20081;-49
2023/03/08 02:44:49;;;;;;;0.20;0.20;;;;;;;2.01;87.77;98982.06;4927444;29;20632;-51
2023/03/08 02:47:16;;;;;;;0.38;0.38;;;;;;;2.05;88.22;98995.41;4930279;29;20495;-49
2023/03/08 02:49:41;;;;;;;0.30;0.30;;;;;;;2.10;88.13;98984.53;4945553;29;20044;-46
2023/03/08 02:52:08;;;;;;;0.30;0.30;;;;;;;2.08;88.39;99002.69;4932859;29;20039;-47
2023/03/08 02:54:34;;;;;;;0.30;0.30;;;;;;;2.08;88.80;98998.16;4927238;29;20028;-49
2023/03/08 02:57:00;;;;;;;0.50;0.50;;;;;;;2.19;88.58;98993.13;4926001;29;20410;-46
2023/03/08 02:59:25;;;;;;;0.50;0.50;;;;;;;2.29;88.78;98992.63;4927378;29;20044;-55
2023/03/08 03:01:52;;;;;;;0.30;0.30;;;;;;;2.29;88.50;98992.63;4923645;29;20114;-48
2023/03/08 03:04:18;;;;;;;0.50;0.50;;;;;;;2.31;89.22;98993.06;4912028;29;20059;-50
2023/03/08 03:06:44;;;;;;;0.38;0.38;;;;;;;2.51;88.63;98994.72;4931434;29;20042;-51
2023/03/08 03:09:12;;;;;;;0.85;0.52;;;;;;;2.50;88.63;98998.47;4931539;29;20032;-50
2023/03/08 03:11:39;;;;;;;0.52;0.52;;;;;;;2.68;87.99;98999.69;4913236;29;20062;-47
2023/03/08 03:14:05;;;;;;;0.30;0.30;;;;;;;2.61;88.60;99004.84;4941056;29;20059;-48
2023/03/08 03:16:36;;;;;;;0.50;0.50;;;;;;;2.84;87.46;99000.44;4922815;29;20032;-49
2023/03/08 03:19:02;;;;;;;0.20;0.20;;;;;;;2.78;87.80;99003.69;4945451;29;20028;-48
2023/03/08 03:21:28;;;;;;;0.22;0.22;;;;;;;2.87;87.67;99005.06;4933593;29;20130;-48
2023/03/08 03:23:54;;;;;;;0.20;0.20;;;;;;;2.83;87.88;99000.81;4927052;29;20039;-49
2023/03/08 03:26:25;;;;;;;0.57;0.32;;;;;;;2.81;87.97;99000.38;4938654;29;20035;-51
2023/03/08 03:28:57;;;;;;;0.13;0.13;;;;;;;2.75;88.59;98991.88;4931755;29;20459;-48
2023/03/08 03:31:26;;;;;;;0.28;0.28;;;;;;;2.72;88.90;98993.34;4927032;29;20027;-49
2023/03/08 03:33:52;;;;;;;1.75;0.98;;;;;;;2.74;89.28;99011.59;4931585;29;20118;-48
2023/03/08 03:36:22;;;;;;;0.70;0.70;;;;;;;2.77;89.16;99004.84;4930545;29;20122;-53
2023/03/08 03:38:49;;;;;;;0.32;0.32;;;;;;;2.84;89.28;99005.78;4929362;29;20035;-51
2023/03/08 03:41:18;;;;;;;0.30;0.30;;;;;;;2.91;89.13;99005.94;4925405;29;20052;-55
2023/03/08 03:43:44;;;;;;;0.90;0.57;;;;;;;2.96;89.32;98999.59;4931735;29;20034;-51
2023/03/08 03:46:14;;;;;;;0.30;0.30;;;;;;;3.08;88.75;99002.91;4926375;29;20040;-48
2023/03/08 03:48:41;;;;;;;1.17;0.60;;;;;;;3.18;88.37;99006.91;4922898;29;20040;-53
2023/03/08 03:51:16;;;;;;;0.30;0.30;;;;;;;3.12;88.66;99003.75;4925764;29;20036;-51
2023/03/08 03:53:46;;;;;;;0.75;0.70;;;;;;;3.17;88.56;99008.03;4922575;29;20032;-49
2023/03/08 03:56:18;;;;;;;0.10;0.10;;;;;;;3.17;88.49;99013.38;4929733;29;20455;-50
2023/03/08 03:58:44;;;;;;;0.30;0.30;;;;;;;3.00;89.70;99000.44;4932002;29;20501;-52
2023/03/08 04:01:19;;;;;;;0.20;0.20;;;;;;;3.09;89.61;99012.44;4918941;29;21007;-49
2023/03/08 04:03:46;;;;;;;0.30;0.30;;;;;;;3.07;89.60;99005.91;4924108;29;20119;-53
2023/03/08 04:06:18;;;;;;;0.38;0.38;;;;;;;3.10;89.50;99003.31;4930896;29;20040;-49
2023/03/08 04:09:05;;;;;;;0.82;0.82;;;;;;;3.16;89.03;99012.59;4929306;29;20095;-45
2023/03/08 04:11:36;;;;;;;0.43;0.40;;;;;;;3.28;88.92;99017.03;4876556;29;20044;-53
2023/03/08 04:14:04;;;;;;;0.20;0.20;;;;;;;3.29;88.24;99013.25;4873437;29;20051;-49
2023/03/08 04:16:36;;;;;;;0.65;0.55;;;;;;;3.19;88.81;99014.56;4879106;29;20124;-53
2023/03/08 04:19:09;;;;;;;0.30;0.30;;;;;;;3.19;89.21;99016.44;4884614;29;20064;-50
2023/03/08 04:21:35;;;;;;;0.30;0.30;;;;;;;3.16;89.37;99015.25;4875249;29;20092;-50
2023/03/08 04:24:01;;;;;;;0.30;0.30;;;;;;;3.28;89.02;99017.03;4891266;29;20037;-51
2023/03/08 04:26:27;;;;;;;0.45;0.40;;;;;;;3.31;88.94;99019.75;4865823;29;20471;-52
2023/03/08 04:28:52;;;;;;;0.30;0.30;;;;;;;3.41;88.50;99011.25;4888441;29;20057;-51
2023/03/08 04:31:26;;;;;;;0.20;0.20;;;;;;;3.38;88.13;99017.28;4893072;29;20032;-49
2023/03/08 04:33:57;;;;;;;0.20;0.20;;;;;;;3.45;88.29;99008.66;4876271;29;20037;-54
2023/03/08 04:36:23;;;;;;;0.30;0.30;;;;;;;3.25;88.90;99018.47;4874946;29;20055;-50
2023/03/08 04:38:50;;;;;;;0.93;0.65;;;;;;;3.40;88.82;99006.28;4891708;29;20822;-51
2023/03/08 04:41:16;;;;;;;0.30;0.30;;;;;;;3.33;88.84;99014.84;4875289;29;20559;-54
2023/03/08 04:44:05;;;;;;;0.30;0.30;;;;;;;3.36;88.61;99008.88;4891584;29;20533;-51
2023/03/08 04:46:44;;;;;;;0.40;0.38;;;;;;;3.32;89.11;99012.56;4879383;29;20040;-50
2023/03/08 04:49:14;;;;;;;0.85;0.50;;;;;;;3.33;89.37;99012.19;4906532;29;20036;-48
2023/03/08 04:51:44;;;;;;;0.35;0.35;;;;;;;3.32;89.50;99016.00;4935406;29;20035;-48
2023/03/08 04:54:10;;;;;;;0.30;0.30;;;;;;;3.28;89.74;99017.81;4926722;29;20027;-49
2023/03/08 04:56:42;;;;;;;1.17;0.50;;;;;;;3.45;89.12;99022.72;4907006;29;20812;-49
2023/03/08 04:59:09;;;;;;;0.35;0.35;;;;;;;3.53;88.61;99018.31;4924879;29;20119;-48
2023/03/08 05:01:35;;;;;;;0.30;0.30;;;;;;;3.52;88.52;99016.81;4917616;29;20119;-52
2023/03/08 05:04:00;;;;;;;0.40;0.40;;;;;;;3.49;88.62;99017.47;4927674;29;20091;-48
2023/03/08 05:06:33;;;;;;;0.85;0.85;;;;;;;3.44;88.77;99018.53;4929015;29;20075;-52
2023/03/08 05:08:58;;;;;;;0.88;0.88;;;;;;;3.55;88.64;99024.06;4924230;29;20063;-50
2023/03/08 05:11:26;;;;;;;0.50;0.50;;;;;;;3.49;88.57;99028.91;4919111;29;20043;-50
2023/03/08 05:13:54;;;;;;;0.50;0.50;;;;;;;3.53;88.39;99016.44;4917543;29;20070;-49
2023/03/08 05:16:21;;;;;;;0.30;0.30;;;;;;;3.62;88.64;99022.31;4924172;29;20095;-48
2023/03/08 05:18:46;;;;;;;0.40;0.40;;;;;;;3.50;88.64;99019.03;4911662;29;20031;-52
2023/03/08 05:21:16;;;;;;;0.65;0.50;;;;;;;3.42;88.88;99022.66;4923222;29;20035;-51
2023/03/08 05:23:43;;;;;;;0.88;0.88;;;;;;;3.45;89.04;99013.97;4933964;29;20507;-49
2023/03/08 05:26:13;;;;;;;0.40;0.40;;;;;;;3.37;89.49;99020.25;4927139;29;20031;-49
2023/03/08 05:28:42;;;;;;;0.30;0.30;;;;;;;3.41;89.60;99011.25;4916793;29;20040;-49
2023/03/08 05:31:17;;;;;;;0.30;0.30;;;;;;;3.59;89.13;99004.41;4931455;29;20439;-49
2023/03/08 05:33:46;;;;;;;0.68;0.57;;;;;;;3.61;88.01;98998.72;4922590;29;20130;-47
2023/03/08 05:36:16;;;;;;;0.40;0.40;;;;;;;3.43;88.97;99000.25;4933925;28;20028;-48
2023/03/08 05:38:43;;;;;;;0.22;0.22;;;;;;;3.39;89.29;99002.84;4932925;29;20513;-50
2023/03/08 05:41:15;;;;;;;0.68;0.68;;;;;;;3.39;89.61;99008.16;4913472;29;20067;-52
2023/03/08 05:43:43;;;;;;;0.57;0.57;;;;;;;3.18;90.35;99005.03;4929392;29;20140;-48
2023/03/08 05:46:12;;;;;;;0.20;0.20;;;;;;;3.36;89.17;98998.22;4908516;29;20032;-51
2023/03/08 05:48:38;;;;;;;0.50;0.50;;;;;;;3.32;89.51;99013.31;4928593;29;20031;-47
2023/03/08 05:51:15;;;;;;;0.30;0.30;;;;;;;3.44;89.11;99009.78;4932542;29;20380;-52
2023/03/08 05:53:41;;;;;;;0.40;0.40;;;;;;;3.34;89.33;99018.28;4931825;29;20398;-50
2023/03/08 05:56:10;;;;;;;0.88;0.88;;;;;;;3.39;89.72;99012.69;4917818;29;20134;-51
2023/03/08 05:58:39;;;;;;;0.30;0.30;;;;;;;3.49;89.23;99022.81;4917551;29;20028;-52
2023/03/08 06:01:17;;;;;;;1.17;0.85;;;;;;;3.57;88.78;99011.97;4909032;29;20044;-51
2023/03/08 06:03:44;;;;;;;0.80;0.65;;;;;;;3.43;89.01;99018.88;4934733;29;20040;-51
2023/03/08 06:06:11;;;;;;;0.45;0.45;;;;;;;3.52;88.97;99017.56;4919095;29;20510;-49
2023/03/08 06:08:36;;;;;;;0.85;0.85;;;;;;;3.62;88.51;99027.66;4937754;29;20024;-52
2023/03/08 06:11:03;;;;;;;0.50;0.50;;;;;;;3.55;88.51;99022.19;4907071;29;20028;-53
2023/03/08 06:13:29;;;;;;;0.35;0.35;;;;;;;3.59;88.03;99023.03;4926028;29;20028;-51
2023/03/08 06:15:57;;;;;;;0.28;0.28;;;;;;;3.70;87.28;99033.88;4891646;29;20117;-53
2023/03/08 06:18:24;;;;;;;0.30;0.30;;;;;;;3.46;88.30;99021.63;4921577;29;20056;-49
2023/03/08 06:21:05;;;;;;;0.20;0.20;;;;;;;3.48;88.35;99026.59;4924390;29;20098;-49
2023/03/08 06:23:34;;;;;;;0.13;0.13;;;;;;;3.39;88.84;99020.69;4921027;29;20133;-50
2023/03/08 06:26:00;;;;;;;0.40;0.40;;;;;;;3.55;88.20;99024.06;4911976;29;20032;-48
2023/03/08 06:28:27;;;;;;;2.00;0.47;;;;;;;3.56;88.07;99018.41;4909182;29;20043;-47
2023/03/08 06:30:53;;;;;;;0.30;0.30;;;;;;;3.53;87.80;99027.09;4904011;29;20032;-49
2023/03/08 06:33:22;;;;;;;1.75;0.82;;;;;;;3.53;88.31;99029.75;4915134;29;20050;-50
2023/03/08 06:35:58;;;;;;;0.60;0.60;;;;;;;3.65;87.79;99026.97;4921781;29;20029;-49
2023/03/08 06:38:26;;;;;;;0.20;0.20;;;;;;;3.59;87.76;99023.03;4919783;29;20581;-47
2023/03/08 06:40:52;;;;;;;1.55;0.68;;;;;;;3.66;87.07;99017.84;4919021;29;20051;-49
2023/03/08 06:43:18;;;;;;;0.45;0.40;;;;;;;3.60;87.65;99011.25;4912347;29;20032;-48
2023/03/08 06:45:44;;;;;;;0.35;0.35;;;;;;;3.50;87.92;99014.47;4916565;29;20039;-51
2023/03/08 06:48:10;;;;;;;0.25;0.25;;;;;;;3.51;87.98;99013.38;4902084;29;20091;-50
2023/03/08 06:50:36;;;;;;;0.30;0.30;;;;;;;3.57;87.85;99016.50;4924286;29;20058;-48
2023/03/08 06:53:02;;;;;;;1.15;0.47;;;;;;;3.38;88.47;99011.16;4922828;29;20040;-49
2023/03/08 06:55:48;;;;;;;0.30;0.30;;;;;;;3.51;88.46;99013.38;4900304;29;20480;-50
2023/03/08 06:58:13;;;;;;;0.20;0.20;;;;;;;3.70;88.10;99017.16;4914209;29;20123;-49
2023/03/08 07:00:39;;;;;;;0.45;0.45;;;;;;;3.70;87.67;99012.59;4915724;29;20044;-51
2023/03/08 07:03:04;;;;;;;0.50;0.50;;;;;;;3.71;87.57;99022.13;4917248;29;20103;-49
2023/03/08 07:05:30;;;;;;;0.43;0.43;;;;;;;3.89;86.86;99019.84;4913213;29;20035;-45
2023/03/08 07:07:56;;;;;;;0.20;0.20;;;;;;;3.85;86.83;99016.34;4914160;29;20035;-51
2023/03/08 07:10:22;;;;;;;0.20;0.20;;;;;;;3.71;87.40;99008.84;4914634;29;20142;-50
2023/03/08 07:12:50;;;;;;;0.75;0.40;;;;;;;3.76;87.47;99021.06;4910762;29;20047;-49
2023/03/08 07:15:19;;;;;;;0.75;0.75;;;;;;;3.81;87.30;99021.59;4916704;29;20647;-52
2023/03/08 07:17:46;;;;;;;0.57;0.57;;;;;;;3.70;87.43;99022.50;4917171;29;20119;-50
2023/03/08 07:20:13;;;;;;;1.27;1.05;;;;;;;3.78;87.23;99029.47;4924021;29;20446;-53
2023/03/08 07:22:43;;;;;;;0.47;0.47;;;;;;;3.78;87.36;99032.13;4911097;29;20036;-54
2023/03/08 07:25:13;;;;;;;0.75;0.75;;;;;;;3.88;87.11;99034.25;4916058;29;20040;-47
2023/03/08 07:27:38;;;;;;;1.27;1.13;;;;;;;3.92;86.64;99035.88;4910038;29;20032;-50
2023/03/08 07:30:05;;;;;;;0.32;0.32;;;;;;;4.02;85.92;99029.22;4915856;29;20091;-52
2023/03/08 07:32:30;;;;;;;0.40;0.40;;;;;;;3.98;85.47;99026.50;4912060;29;20484;-50
2023/03/08 07:34:56;;;;;;;0.40;0.40;;;;;;;4.00;85.70;99026.13;4917005;29;20024;-48
2023/03/08 07:37:22;;;;;;;0.30;0.30;;;;;;;3.84;86.24;99022.75;4914517;29;20044;-49
2023/03/08 07:39:48;;;;;;;0.45;0.45;;;;;;;3.76;87.18;99027.19;4916666;29;20038;-47
2023/03/08 07:42:14;;;;;;;0.40;0.40;;;;;;;3.90;86.97;99024.03;4912784;29;20201;-48
2023/03/08 07:44:44;;;;;;;0.40;0.40;;;;;;;3.88;86.85;99024.38;4917983;29;20024;-49
2023/03/08 07:47:10;;;;;;;0.55;0.55;;;;;;;3.87;86.89;99022.81;4914865;29;20391;-48
2023/03/08 07:49:35;;;;;;;0.65;0.65;;;;;;;3.91;87.33;99022.91;4914799;29;20540;-49
2023/03/08 07:52:01;;;;;;;0.68;0.68;;;;;;;4.00;86.63;99031.47;4909229;29;20071;-48
2023/03/08 07:54:26;;;;;;;0.77;0.77;;;;;;;3.94;86.62;99028.31;4912772;29;20027;-51
2023/03/08 07:56:55;;;;;;;0.95;0.93;;;;;;;3.93;86.99;99034.00;4912864;29;20024;-47
2023/03/08 07:59:22;;;;;;;2.75;0.40;;;;;;;3.90;86.88;99040.78;4914089;29;20036;-48
2023/03/08 08:01:48;;;;;;;0.35;0.35;;;;;;;3.91;86.87;99034.31;4906803;29;20071;-48
2023/03/08 08:04:13;;;;;;;0.60;0.60;;;;;;;3.94;86.83;99038.97;4912972;29;20356;-49
2023/03/08 08:06:40;;;;;;;0.65;0.65;;;;;;;3.87;86.79;99043.38;4928281;29;20024;-50
2023/03/08 08:09:07;;;;;;;0.73;0.73;;;;;;;3.93;87.06;99039.31;4928698;29;20031;-48
2023/03/08 08:11:33;;;;;;;0.25;0.25;;;;;;;3.98;86.65;99036.38;4927464;29;20028;-47
2023/03/08 08:13:59;;;;;;;0.65;0.65;;;;;;;3.92;87.02;99025.22;4923807;29;20035;-48
2023/03/08 08:16:24;;;;;;;1.00;1.00;;;;;;;4.00;86.61;99018.16;4921037;29;20353;-48
2023/03/08 08:18:51;;;;;;;0.50;0.50;;;;;;;4.16;86.13;99021.50;4926878;29;20494;-48
2023/03/08 08:21:37;;;;;;;0.60;0.60;;;;;;;4.20;86.40;99025.00;4916805;29;20572;-49
2023/03/08 08:24:03;;;;;;;0.40;0.40;;;;;;;4.20;85.91;99017.78;4857606;29;20048;-46
2023/03/08 08:26:28;;;;;;;0.35;0.35;;;;;;;4.08;86.35;99014.50;4878369;29;20060;-50
2023/03/08 08:28:54;;;;;;;0.75;0.75;;;;;;;4.08;86.50;99017.94;4862876;29;20132;-54
2023/03/08 08:31:27;;;;;;;1.55;1.08;;;;;;;4.00;86.43;99005.63;4827983;29;20057;-47
2023/03/08 08:33:53;;;;;;;0.90;0.90;;;;;;;4.10;86.78;99014.91;4856645;29;20052;-51
2023/03/08 08:36:19;;;;;;;0.50;0.50;;;;;;;4.26;86.63;99005.72;4856022;29;20041;-48
2023/03/08 08:38:46;;;;;;;3.00;0.43;;;;;;;4.30;85.75;99008.44;4856947;29;20045;-50
2023/03/08 08:41:16;;;;;;;0.75;0.63;;;;;;;4.27;85.78;99014.47;4860396;29;20057;-53
2023/03/08 08:43:44;;;;;;;0.63;0.63;;;;;;;4.39;85.65;99015.06;4860397;29;20041;-47
2023/03/08 08:46:09;;;;;;;0.30;0.30;;;;;;;4.43;85.20;99023.91;4860353;29;20069;-49
2023/03/08 08:48:37;;;;;;;1.00;0.70;;;;;;;4.50;84.36;99026.72;4862688;29;20073;-50
2023/03/08 08:51:06;;;;;;;0.32;0.32;;;;;;;4.60;84.25;99033.34;4871347;29;20041;-49
2023/03/08 08:53:31;;;;;;;1.17;0.63;;;;;;;4.69;83.20;99030.44;4865444;29;20120;-50
2023/03/08 08:55:57;;;;;;;0.40;0.40;;;;;;;4.54;84.08;99024.88;4854303;29;20033;-48
2023/03/08 08:58:22;;;;;;;0.40;0.40;;;;;;;4.52;83.28;99021.03;4852847;29;20077;-50
2023/03/08 09:00:48;;;;;;;0.30;0.30;;;;;;;4.65;83.20;99026.94;4872764;29;20052;-52
2023/03/08 09:03:14;;;;;;;0.80;0.80;;;;;;;4.56;82.70;99040.50;4906541;29;20677;-49
2023/03/08 09:05:42;;;;;;;1.98;0.98;;;;;;;4.47;82.36;99034.66;4912679;29;20553;-49
2023/03/08 09:08:09;;;;;;;0.57;0.57;;;;;;;4.67;81.48;99028.13;4910478;29;20559;-49
2023/03/08 09:10:37;;;;;;;0.47;0.47;;;;;;;4.78;80.99;99033.66;4908528;29;20032;-50
2023/03/08 09:13:03;;;;;;;0.28;0.28;;;;;;;4.70;80.87;99029.31;4909163;29;20031;-48
2023/03/08 09:15:33;;;;;;;0.70;0.68;;;;;;;4.75;81.03;99026.34;4918806;29;20060;-57
2023/03/08 09:17:59;;;;;;;0.77;0.77;;;;;;;4.68;80.67;99019.03;4919212;29;20115;-46
2023/03/08 09:20:24;;;;;;;0.35;0.35;;;;;;;4.69;80.61;99033.09;4914796;29;20130;-52
2023/03/08 09:22:49;;;;;;;0.38;0.38;;;;;;;4.71;80.20;99022.84;4909162;29;20514;-52
2023/03/08 09:25:16;;;;;;;0.95;0.50;;;;;;;4.71;79.83;99023.63;4909559;29;20483;-54
2023/03/08 09:27:41;;;;;;;0.20;0.20;;;;;;;4.56;80.74;99027.97;4914735;29;20035;-53
2023/03/08 09:30:13;;;;;;;0.20;0.20;;;;;;;4.70;81.03;99016.00;4909940;29;20462;-51
2023/03/08 09:32:38;;;;;;;0.20;0.20;;;;;;;4.70;81.39;99016.00;4914130;29;20083;-50
2023/03/08 09:35:05;;;;;;;0.40;0.40;;;;;;;4.78;80.26;99015.72;4915890;29;20107;-48
2023/03/08 09:37:31;;;;;;;0.38;0.38;;;;;;;4.84;80.61;99013.56;4917439;29;20039;-51
2023/03/08 09:39:56;;;;;;;0.63;0.63;;;;;;;4.76;80.88;99011.91;4916455;29;20040;-50
2023/03/08 09:42:28;;;;;;;0.40;0.40;;;;;;;4.81;80.23;99012.38;4912676;29;20040;-52
2023/03/08 09:45:32;;;;;;;0.50;0.50;;;;;;;4.91;79.85;99017.09;4914712;29;20043;-47
2023/03/08 09:48:05;;;;;;;0.40;0.40;;;;;;;4.93;79.86;99014.84;4887878;29;20041;-52
2023/03/08 09:50:48;;;;;;;0.30;0.30;;;;;;;5.07;79.07;99001.72;4899897;29;20406;-49
2023/03/08 09:53:23;;;;;;;1.50;0.75;;;;;;;5.10;79.42;99003.69;4914686;29;20171;-51
2023/03/08 09:55:57;;;;;;;0.73;0.65;;;;;;;5.15;79.61;98998.03;4923668;29;20019;-49
2023/03/08 09:58:45;;;;;;;1.02;0.70;;;;;;;5.11;79.53;98999.88;4915885;29;20135;-53
2023/03/08 10:01:24;;;;;;;0.28;0.28;;;;;;;5.32;79.29;98989.50;4921023;29;20031;-49
2023/03/08 10:04:03;;;;;;;0.30;0.30;;;;;;;5.36;79.09;98990.31;4918756;29;20042;-53
2023/03/08 10:06:42;;;;;;;1.17;0.63;;;;;;;5.39;78.28;98981.59;4906313;29;20075;-49
2023/03/08 10:09:31;;;;;;;0.40;0.40;;;;;;;5.40;78.51;98985.81;4927864;29;20046;-50
2023/03/08 10:12:01;;;;;;;0.65;0.43;;;;;;;5.37;78.51;98975.88;4927123;29;20111;-51
2023/03/08 10:14:51;;;;;;;0.40;0.40;;;;;;;5.27;78.95;98984.50;4930371;29;20458;-51
2023/03/08 10:20:13;;;;;;;0.93;0.60;;;;;;;4.89;77.98;98976.69;4942851;28;20114;-57
2023/03/08 10:22:41;;;;;;;0.50;0.50;;;;;;;4.90;78.80;98978.22;4927400;28;20054;-54
2023/03/08 10:25:25;;;;;;;0.40;0.40;;;;;;;4.94;77.73;98973.72;4946852;28;20038;-54
2023/03/08 10:27:53;;;;;;;0.40;0.40;;;;;;;4.69;78.73;98974.44;4946320;28;20111;-54
2023/03/08 10:30:23;;;;;;;0.68;0.68;;;;;;;4.98;78.20;98971.09;4930854;29;20075;-54
2023/03/08 10:32:53;;;;;;;0.25;0.25;;;;;;;4.71;78.42;98964.19;4940416;28;20506;-55
2023/03/08 10:35:30;;;;;;;0.57;0.52;;;;;;;4.70;80.20;98966.13;4918411;29;20078;-57
2023/03/08 10:37:55;;;;;;;0.25;0.25;;;;;;;4.89;79.39;98965.25;4941741;28;20038;-56
2023/03/08 10:40:21;;;;;;;2.75;0.52;;;;;;;5.12;78.54;98969.41;4945348;28;20393;-56
2023/03/08 10:43:00;;;;;;;0.30;0.30;;;;;;;5.23;78.26;98967.66;4942475;28;20462;-56
2023/03/08 10:45:27;;;;;;;0.30;0.30;;;;;;;5.38;77.34;98966.72;4933133;29;20039;-55
2023/03/08 10:48:02;;;;;;;0.30;0.30;;;;;;;5.39;76.06;98954.91;4946439;28;20067;-57
2023/03/08 10:50:35;;;;;;;0.30;0.30;;;;;;;5.53;75.32;98949.75;4944565;28;20032;-54
2023/03/08 10:53:09;;;;;;;0.20;0.20;;;;;;;5.52;74.70;98950.09;4945373;28;20050;-53
2023/03/08 10:55:47;;;;;;;1.80;0.47;;;;;;;5.56;74.50;98956.25;4941702;28;20522;-54
2023/03/08 10:58:37;;;;;;;0.30;0.30;;;;;;;5.41;75.31;98955.34;4948105;28;20039;-55
2023/03/08 11:01:26;;;;;;;0.30;0.30;;;;;;;5.34;74.95;98949.88;4933218;28;20035;-54
2023/03/08 11:03:58;;;;;;;0.45;0.45;;;;;;;5.53;74.81;98949.00;4946120;28;20031;-58
2023/03/08 11:06:27;;;;;;;0.30;0.30;;;;;;;5.48;75.01;98944.72;4934426;28;20046;-56
2023/03/08 11:08:56;;;;;;;0.45;0.43;;;;;;;5.48;76.23;98949.28;4940757;29;20035;-55
2023/03/08 11:11:22;;;;;;;0.63;0.63;;;;;;;5.72;75.79;98942.72;4915019;29;20035;-53
2023/03/08 11:13:52;;;;;;;0.20;0.20;;;;;;;5.87;75.36;98933.75;4940216;28;20098;-59
2023/03/08 11:16:20;;;;;;;0.47;0.47;;;;;;;5.91;74.74;98930.00;4918420;29;20394;-58
2023/03/08 11:18:57;;;;;;;0.68;0.40;;;;;;;6.16;72.63;98932.91;4941737;28;20027;-57
2023/03/08 11:21:37;;;;;;;0.50;0.50;;;;;;;6.10;72.11;98937.03;4924770;29;20039;-56
2023/03/08 11:24:26;;;;;;;0.73;0.73;;;;;;;6.13;71.81;98930.97;4940269;29;20039;-56
2023/03/08 11:27:34;;;;;;;0.20;0.20;;;;;;;6.00;72.83;98927.78;4929110;29;20463;-58
2023/03/08 11:30:11;;;;;;;0.40;0.40;;;;;;;6.09;72.55;98925.63;4939882;28;20039;-53
2023/03/08 11:33:02;;;;;;;0.40;0.40;;;;;;;6.10;72.80;98924.47;4934068;28;20039;-52
2023/03/08 11:35:43;;;;;;;0.30;0.30;;;;;;;6.11;70.82;98927.91;4921161;28;20035;-55
2023/03/08 11:38:25;;;;;;;0.30;0.30;;;;;;;6.23;70.07;98919.63;4940521;28;20043;-58
2023/03/08 11:41:26;;;;;;;0.30;0.30;;;;;;;6.37;69.77;98920.50;4928893;29;20403;-57
2023/03/08 11:43:54;;;;;;;0.57;0.40;;;;;;;6.34;67.60;98920.47;4945318;28;20478;-56
2023/03/08 11:46:27;;;;;;;0.63;0.47;;;;;;;6.49;66.74;98921.34;4931456;29;20122;-56
2023/03/08 11:48:55;;;;;;;0.30;0.30;;;;;;;6.25;67.65;98920.78;4944662;28;20035;-58
2023/03/08 11:51:32;;;;;;;0.20;0.20;;;;;;;6.36;67.11;98915.53;4914410;29;20036;-58
2023/03/08 11:54:16;;;;;;;0.55;0.35;;;;;;;6.35;68.05;98911.31;4914525;29;20042;-57